sensor_id;sensor_type;location;lat;lon;timestamp;temperature;humidity
25582;DHT22;13462;50.764;4.332;2024-01-07T00:02:19;3.90;99.90
25582;DHT22;13462;50.764;4.332;2024-01-07T00:04:44;4.00;99.90
25582;DHT22;13462;50.764;4.332;2024-01-07T00:07:10;3.90;99.90
25582;DHT22;13462;50.764;4.332;2024-01-07T00:09:36;3.90;99.90
25582;DHT22;13462;50.764;4.332;2024-01-07T00:12:01;4.00;99.90
25582;DHT22;13462;50.764;4.332;2024-01-07T00:14:27;4.00;99.90
25582;DHT22;13462;50.764;4.332;2024-01-07T00:16:52;4.00;99.90
25582;DHT22;13462;50.764;4.332;2024-01-07T00:19:18;3.90;99.90
25582;DHT22;13462;50.764;4.332;2024-01-07T00:21:44;3.90;99.90
25582;DHT22;13462;50.764;4.332;2024-01-07T00:24:09;4.00;99.90
25582;DHT22;13462;50.764;4.332;2024-01-07T00:26:35;4.10;99.90
25582;DHT22;13462;50.764;4.332;2024-01-07T00:29:01;4.10;99.90
25582;DHT22;13462;50.764;4.332;2024-01-07T00:31:26;4.10;99.90
25582;DHT22;13462;50.764;4.332;2024-01-07T00:33:52;3.90;99.90
25582;DHT22;13462;50.764;4.332;2024-01-07T00:36:17;4.00;99.90
25582;DHT22;13462;50.764;4.332;2024-01-07T00:38:43;4.00;99.90
25582;DHT22;13462;50.764;4.332;2024-01-07T00:41:08;4.00;99.90
25582;DHT22;13462;50.764;4.332;2024-01-07T00:43:34;4.00;99.90
25582;DHT22;13462;50.764;4.332;2024-01-07T00:46:00;4.00;99.90
25582;DHT22;13462;50.764;4.332;2024-01-07T00:48:25;4.10;99.90
25582;DHT22;13462;50.764;4.332;2024-01-07T00:50:51;4.10;99.90
25582;DHT22;13462;50.764;4.332;2024-01-07T00:53:16;4.20;99.90
25582;DHT22;13462;50.764;4.332;2024-01-07T00:55:42;4.10;99.90
25582;DHT22;13462;50.764;4.332;2024-01-07T00:58:08;4.00;99.90
25582;DHT22;13462;50.764;4.332;2024-01-07T01:00:33;4.00;99.90
25582;DHT22;13462;50.764;4.332;2024-01-07T01:02:59;4.10;99.90
25582;DHT22;13462;50.764;4.332;2024-01-07T01:05:25;4.10;99.90
25582;DHT22;13462;50.764;4.332;2024-01-07T01:07:50;4.20;99.90
25582;DHT22;13462;50.764;4.332;2024-01-07T01:10:17;4.20;99.90
25582;DHT22;13462;50.764;4.332;2024-01-07T01:12:43;4.20;99.90
25582;DHT22;13462;50.764;4.332;2024-01-07T01:15:09;4.20;99.90
25582;DHT22;13462;50.764;4.332;2024-01-07T01:17:35;4.20;99.90
25582;DHT22;13462;50.764;4.332;2024-01-07T01:20:01;4.20;99.90
25582;DHT22;13462;50.764;4.332;2024-01-07T01:22:26;4.10;99.90
25582;DHT22;13462;50.764;4.332;2024-01-07T01:24:52;4.00;99.90
25582;DHT22;13462;50.764;4.332;2024-01-07T01:27:19;4.00;99.90
25582;DHT22;13462;50.764;4.332;2024-01-07T01:29:44;4.00;99.90
25582;DHT22;13462;50.764;4.332;2024-01-07T01:32:10;4.00;99.90
25582;DHT22;13462;50.764;4.332;2024-01-07T01:34:36;4.10;99.90
25582;DHT22;13462;50.764;4.332;2024-01-07T01:37:03;4.20;99.90
25582;DHT22;13462;50.764;4.332;2024-01-07T01:39:29;4.20;99.90
25582;DHT22;13462;50.764;4.332;2024-01-07T01:41:54;4.20;99.90
25582;DHT22;13462;50.764;4.332;2024-01-07T01:44:21;4.20;99.90
25582;DHT22;13462;50.764;4.332;2024-01-07T01:46:47;4.20;99.90
25582;DHT22;13462;50.764;4.332;2024-01-07T01:49:13;4.20;99.90
25582;DHT22;13462;50.764;4.332;2024-01-07T01:51:39;4.10;99.90
25582;DHT22;13462;50.764;4.332;2024-01-07T01:54:05;4.00;99.90
25582;DHT22;13462;50.764;4.332;2024-01-07T01:56:31;4.10;99.90
25582;DHT22;13462;50.764;4.332;2024-01-07T01:58:58;4.10;99.90
25582;DHT22;13462;50.764;4.332;2024-01-07T02:01:24;4.20;99.90
25582;DHT22;13462;50.764;4.332;2024-01-07T02:03:50;4.10;99.90
25582;DHT22;13462;50.764;4.332;2024-01-07T02:06:18;4.20;99.90
25582;DHT22;13462;50.764;4.332;2024-01-07T02:08:44;4.20;99.90
25582;DHT22;13462;50.764;4.332;2024-01-07T02:11:20;4.10;99.90
25582;DHT22;13462;50.764;4.332;2024-01-07T02:13:46;4.10;99.90
25582;DHT22;13462;50.764;4.332;2024-01-07T02:16:12;4.00;99.90
25582;DHT22;13462;50.764;4.332;2024-01-07T02:18:41;4.00;99.90
25582;DHT22;13462;50.764;4.332;2024-01-07T02:21:10;4.00;99.90
25582;DHT22;13462;50.764;4.332;2024-01-07T02:23:36;3.90;99.90
25582;DHT22;13462;50.764;4.332;2024-01-07T02:26:02;3.80;99.90
25582;DHT22;13462;50.764;4.332;2024-01-07T02:28:29;3.70;99.90
25582;DHT22;13462;50.764;4.332;2024-01-07T02:30:55;3.60;99.90
25582;DHT22;13462;50.764;4.332;2024-01-07T02:33:20;3.50;99.90
25582;DHT22;13462;50.764;4.332;2024-01-07T02:35:46;3.50;99.90
25582;DHT22;13462;50.764;4.332;2024-01-07T02:38:11;3.50;99.90
25582;DHT22;13462;50.764;4.332;2024-01-07T02:40:37;3.50;99.90
25582;DHT22;13462;50.764;4.332;2024-01-07T02:43:03;3.50;99.90
25582;DHT22;13462;50.764;4.332;2024-01-07T02:45:28;3.50;99.90
25582;DHT22;13462;50.764;4.332;2024-01-07T02:47:54;3.40;99.90
25582;DHT22;13462;50.764;4.332;2024-01-07T02:50:20;3.40;99.90
25582;DHT22;13462;50.764;4.332;2024-01-07T02:52:45;3.30;99.90
25582;DHT22;13462;50.764;4.332;2024-01-07T02:55:11;3.30;99.90
25582;DHT22;13462;50.764;4.332;2024-01-07T02:57:36;3.20;99.90
25582;DHT22;13462;50.764;4.332;2024-01-07T03:00:02;3.20;99.90
25582;DHT22;13462;50.764;4.332;2024-01-07T03:02:30;3.20;99.90
25582;DHT22;13462;50.764;4.332;2024-01-07T03:04:55;3.20;99.90
25582;DHT22;13462;50.764;4.332;2024-01-07T03:07:21;3.10;99.90
25582;DHT22;13462;50.764;4.332;2024-01-07T03:09:48;3.10;99.90
25582;DHT22;13462;50.764;4.332;2024-01-07T03:12:15;3.10;99.90
25582;DHT22;13462;50.764;4.332;2024-01-07T03:14:41;3.20;99.90
25582;DHT22;13462;50.764;4.332;2024-01-07T03:17:07;3.10;99.90
25582;DHT22;13462;50.764;4.332;2024-01-07T03:19:32;3.10;99.90
25582;DHT22;13462;50.764;4.332;2024-01-07T03:21:58;3.10;99.90
25582;DHT22;13462;50.764;4.332;2024-01-07T03:24:24;3.10;99.90
25582;DHT22;13462;50.764;4.332;2024-01-07T03:26:49;3.10;99.90
25582;DHT22;13462;50.764;4.332;2024-01-07T03:29:15;3.00;99.90
25582;DHT22;13462;50.764;4.332;2024-01-07T03:31:41;3.00;99.90
25582;DHT22;13462;50.764;4.332;2024-01-07T03:34:06;3.10;99.90
25582;DHT22;13462;50.764;4.332;2024-01-07T03:36:32;3.10;99.90
25582;DHT22;13462;50.764;4.332;2024-01-07T03:38:58;3.10;99.90
25582;DHT22;13462;50.764;4.332;2024-01-07T03:41:23;3.00;99.90
25582;DHT22;13462;50.764;4.332;2024-01-07T03:43:49;3.00;99.90
25582;DHT22;13462;50.764;4.332;2024-01-07T03:46:16;3.10;99.90
25582;DHT22;13462;50.764;4.332;2024-01-07T03:48:43;3.00;99.90
25582;DHT22;13462;50.764;4.332;2024-01-07T03:51:09;3.00;99.90
25582;DHT22;13462;50.764;4.332;2024-01-07T03:53:34;3.00;99.90
25582;DHT22;13462;50.764;4.332;2024-01-07T03:56:00;2.90;99.90
25582;DHT22;13462;50.764;4.332;2024-01-07T03:58:25;2.90;99.90
25582;DHT22;13462;50.764;4.332;2024-01-07T04:00:51;3.00;99.90
25582;DHT22;13462;50.764;4.332;2024-01-07T04:03:17;3.00;99.90
25582;DHT22;13462;50.764;4.332;2024-01-07T04:05:42;3.00;99.90
25582;DHT22;13462;50.764;4.332;2024-01-07T04:08:11;3.00;99.90
25582;DHT22;13462;50.764;4.332;2024-01-07T04:10:37;2.90;99.90
25582;DHT22;13462;50.764;4.332;2024-01-07T04:13:03;2.80;99.90
25582;DHT22;13462;50.764;4.332;2024-01-07T04:15:29;2.80;99.90
25582;DHT22;13462;50.764;4.332;2024-01-07T04:17:55;2.80;99.90
25582;DHT22;13462;50.764;4.332;2024-01-07T04:20:20;2.80;99.90
25582;DHT22;13462;50.764;4.332;2024-01-07T04:22:46;2.90;99.90
25582;DHT22;13462;50.764;4.332;2024-01-07T04:25:12;3.00;99.90
25582;DHT22;13462;50.764;4.332;2024-01-07T04:27:38;2.90;99.90
25582;DHT22;13462;50.764;4.332;2024-01-07T04:30:05;3.00;99.90
25582;DHT22;13462;50.764;4.332;2024-01-07T04:32:31;2.90;99.90
25582;DHT22;13462;50.764;4.332;2024-01-07T04:34:56;3.00;99.90
25582;DHT22;13462;50.764;4.332;2024-01-07T04:37:23;2.90;99.90
25582;DHT22;13462;50.764;4.332;2024-01-07T04:39:49;2.90;99.90
25582;DHT22;13462;50.764;4.332;2024-01-07T04:42:16;2.90;99.90
25582;DHT22;13462;50.764;4.332;2024-01-07T04:44:42;2.90;99.90
25582;DHT22;13462;50.764;4.332;2024-01-07T04:47:30;2.80;99.90
25582;DHT22;13462;50.764;4.332;2024-01-07T04:49:56;2.90;99.90
25582;DHT22;13462;50.764;4.332;2024-01-07T04:52:26;2.80;99.90
25582;DHT22;13462;50.764;4.332;2024-01-07T04:54:52;2.80;99.90
25582;DHT22;13462;50.764;4.332;2024-01-07T04:57:18;2.80;99.90
25582;DHT22;13462;50.764;4.332;2024-01-07T04:59:44;2.80;99.90
25582;DHT22;13462;50.764;4.332;2024-01-07T05:02:10;2.80;99.90
25582;DHT22;13462;50.764;4.332;2024-01-07T05:04:36;2.80;99.90
25582;DHT22;13462;50.764;4.332;2024-01-07T05:07:02;2.90;99.90
25582;DHT22;13462;50.764;4.332;2024-01-07T05:09:28;2.90;99.90
25582;DHT22;13462;50.764;4.332;2024-01-07T05:11:54;2.90;99.90
25582;DHT22;13462;50.764;4.332;2024-01-07T05:14:19;2.90;99.90
25582;DHT22;13462;50.764;4.332;2024-01-07T05:16:45;2.90;99.90
25582;DHT22;13462;50.764;4.332;2024-01-07T05:19:10;3.00;99.90
25582;DHT22;13462;50.764;4.332;2024-01-07T05:21:36;2.90;99.90
25582;DHT22;13462;50.764;4.332;2024-01-07T05:24:01;2.90;99.90
25582;DHT22;13462;50.764;4.332;2024-01-07T05:26:27;2.90;99.90
25582;DHT22;13462;50.764;4.332;2024-01-07T05:28:53;2.80;99.90
25582;DHT22;13462;50.764;4.332;2024-01-07T05:31:19;2.80;99.90
25582;DHT22;13462;50.764;4.332;2024-01-07T05:33:45;2.70;99.90
25582;DHT22;13462;50.764;4.332;2024-01-07T05:36:12;2.80;99.90
25582;DHT22;13462;50.764;4.332;2024-01-07T05:38:38;2.80;99.90
25582;DHT22;13462;50.764;4.332;2024-01-07T05:41:04;2.80;99.90
25582;DHT22;13462;50.764;4.332;2024-01-07T05:43:30;2.80;99.90
25582;DHT22;13462;50.764;4.332;2024-01-07T05:45:55;2.90;99.90
25582;DHT22;13462;50.764;4.332;2024-01-07T05:48:22;2.90;99.90
25582;DHT22;13462;50.764;4.332;2024-01-07T05:50:48;2.90;99.90
25582;DHT22;13462;50.764;4.332;2024-01-07T05:53:13;2.90;99.90
25582;DHT22;13462;50.764;4.332;2024-01-07T05:55:39;2.80;99.90
25582;DHT22;13462;50.764;4.332;2024-01-07T05:58:04;2.80;99.90
25582;DHT22;13462;50.764;4.332;2024-01-07T06:00:30;2.80;99.90
25582;DHT22;13462;50.764;4.332;2024-01-07T06:02:56;2.70;99.90
25582;DHT22;13462;50.764;4.332;2024-01-07T06:05:22;2.70;99.90
25582;DHT22;13462;50.764;4.332;2024-01-07T06:07:47;2.60;99.90
25582;DHT22;13462;50.764;4.332;2024-01-07T06:10:13;2.60;99.90
25582;DHT22;13462;50.764;4.332;2024-01-07T06:12:38;2.60;99.90
25582;DHT22;13462;50.764;4.332;2024-01-07T06:15:04;2.80;99.90
25582;DHT22;13462;50.764;4.332;2024-01-07T06:17:31;2.80;99.90
25582;DHT22;13462;50.764;4.332;2024-01-07T06:19:56;2.80;99.90
25582;DHT22;13462;50.764;4.332;2024-01-07T06:22:22;2.80;99.90
25582;DHT22;13462;50.764;4.332;2024-01-07T06:24:48;2.80;99.90
25582;DHT22;13462;50.764;4.332;2024-01-07T06:27:14;2.70;99.90
25582;DHT22;13462;50.764;4.332;2024-01-07T06:29:40;2.70;99.90
25582;DHT22;13462;50.764;4.332;2024-01-07T06:32:05;2.80;99.90
25582;DHT22;13462;50.764;4.332;2024-01-07T06:34:31;2.70;99.90
25582;DHT22;13462;50.764;4.332;2024-01-07T06:36:58;2.70;99.90
25582;DHT22;13462;50.764;4.332;2024-01-07T06:39:24;2.70;99.90
25582;DHT22;13462;50.764;4.332;2024-01-07T06:41:52;2.80;99.90
25582;DHT22;13462;50.764;4.332;2024-01-07T06:44:18;2.80;99.90
25582;DHT22;13462;50.764;4.332;2024-01-07T06:46:43;2.70;99.90
25582;DHT22;13462;50.764;4.332;2024-01-07T06:49:09;2.80;99.90
25582;DHT22;13462;50.764;4.332;2024-01-07T06:51:35;2.80;99.90
25582;DHT22;13462;50.764;4.332;2024-01-07T06:54:00;2.80;99.90
25582;DHT22;13462;50.764;4.332;2024-01-07T06:56:26;2.80;99.90
25582;DHT22;13462;50.764;4.332;2024-01-07T06:58:52;2.80;99.90
25582;DHT22;13462;50.764;4.332;2024-01-07T07:01:20;2.70;99.90
25582;DHT22;13462;50.764;4.332;2024-01-07T07:03:46;2.70;99.90
25582;DHT22;13462;50.764;4.332;2024-01-07T07:06:11;2.60;99.90
25582;DHT22;13462;50.764;4.332;2024-01-07T07:08:38;2.60;99.90
25582;DHT22;13462;50.764;4.332;2024-01-07T07:11:03;2.60;99.90
25582;DHT22;13462;50.764;4.332;2024-01-07T07:13:29;2.60;99.90
25582;DHT22;13462;50.764;4.332;2024-01-07T07:15:55;2.60;99.90
25582;DHT22;13462;50.764;4.332;2024-01-07T07:18:21;2.60;99.90
25582;DHT22;13462;50.764;4.332;2024-01-07T07:20:47;2.60;99.90
25582;DHT22;13462;50.764;4.332;2024-01-07T07:23:12;2.60;99.90
25582;DHT22;13462;50.764;4.332;2024-01-07T07:25:39;2.50;99.90
25582;DHT22;13462;50.764;4.332;2024-01-07T07:28:04;2.60;99.90
25582;DHT22;13462;50.764;4.332;2024-01-07T07:30:30;2.60;99.90
25582;DHT22;13462;50.764;4.332;2024-01-07T07:32:56;2.60;99.90
25582;DHT22;13462;50.764;4.332;2024-01-07T07:35:21;2.60;99.90
25582;DHT22;13462;50.764;4.332;2024-01-07T07:37:47;2.60;99.90
25582;DHT22;13462;50.764;4.332;2024-01-07T07:40:13;2.60;99.90
25582;DHT22;13462;50.764;4.332;2024-01-07T07:42:39;2.60;99.90
25582;DHT22;13462;50.764;4.332;2024-01-07T07:45:05;2.60;99.90
25582;DHT22;13462;50.764;4.332;2024-01-07T07:47:31;2.70;99.90
25582;DHT22;13462;50.764;4.332;2024-01-07T07:49:57;2.60;99.90
25582;DHT22;13462;50.764;4.332;2024-01-07T07:52:23;2.70;99.90
25582;DHT22;13462;50.764;4.332;2024-01-07T07:54:52;2.60;99.90
25582;DHT22;13462;50.764;4.332;2024-01-07T07:57:17;2.60;99.90
25582;DHT22;13462;50.764;4.332;2024-01-07T07:59:45;2.60;99.90
25582;DHT22;13462;50.764;4.332;2024-01-07T08:02:10;2.60;99.90
25582;DHT22;13462;50.764;4.332;2024-01-07T08:04:36;2.50;99.90
25582;DHT22;13462;50.764;4.332;2024-01-07T08:07:02;2.40;99.90
25582;DHT22;13462;50.764;4.332;2024-01-07T08:09:28;2.50;99.90
25582;DHT22;13462;50.764;4.332;2024-01-07T08:11:53;2.50;99.90
25582;DHT22;13462;50.764;4.332;2024-01-07T08:14:19;2.50;99.90
25582;DHT22;13462;50.764;4.332;2024-01-07T08:16:45;2.60;99.90
25582;DHT22;13462;50.764;4.332;2024-01-07T08:19:10;2.70;99.90
25582;DHT22;13462;50.764;4.332;2024-01-07T08:21:36;2.70;99.90
25582;DHT22;13462;50.764;4.332;2024-01-07T08:24:02;2.60;99.90
25582;DHT22;13462;50.764;4.332;2024-01-07T08:26:29;2.50;99.90
25582;DHT22;13462;50.764;4.332;2024-01-07T08:28:55;2.60;99.90
25582;DHT22;13462;50.764;4.332;2024-01-07T08:31:20;2.60;99.90
25582;DHT22;13462;50.764;4.332;2024-01-07T08:33:46;2.60;99.90
25582;DHT22;13462;50.764;4.332;2024-01-07T08:36:11;2.60;99.90
25582;DHT22;13462;50.764;4.332;2024-01-07T08:38:37;2.60;99.90
25582;DHT22;13462;50.764;4.332;2024-01-07T08:41:03;2.60;99.90
25582;DHT22;13462;50.764;4.332;2024-01-07T08:43:28;2.50;99.90
25582;DHT22;13462;50.764;4.332;2024-01-07T08:45:54;2.50;99.90
25582;DHT22;13462;50.764;4.332;2024-01-07T08:48:20;2.50;99.90
25582;DHT22;13462;50.764;4.332;2024-01-07T08:50:45;2.50;99.90
25582;DHT22;13462;50.764;4.332;2024-01-07T08:53:11;2.40;99.90
25582;DHT22;13462;50.764;4.332;2024-01-07T08:55:37;2.50;99.90
25582;DHT22;13462;50.764;4.332;2024-01-07T08:58:03;2.60;99.90
25582;DHT22;13462;50.764;4.332;2024-01-07T09:00:29;2.60;99.90
25582;DHT22;13462;50.764;4.332;2024-01-07T09:02:57;2.60;99.90
25582;DHT22;13462;50.764;4.332;2024-01-07T09:05:22;2.60;99.90
25582;DHT22;13462;50.764;4.332;2024-01-07T09:07:49;2.60;99.90
25582;DHT22;13462;50.764;4.332;2024-01-07T09:10:15;2.50;99.90
25582;DHT22;13462;50.764;4.332;2024-01-07T09:12:41;2.40;99.90
25582;DHT22;13462;50.764;4.332;2024-01-07T09:15:07;2.50;99.90
25582;DHT22;13462;50.764;4.332;2024-01-07T09:17:37;2.50;99.90
25582;DHT22;13462;50.764;4.332;2024-01-07T09:20:07;2.50;99.90
25582;DHT22;13462;50.764;4.332;2024-01-07T09:22:34;2.50;99.90
25582;DHT22;13462;50.764;4.332;2024-01-07T09:25:03;2.50;99.90
25582;DHT22;13462;50.764;4.332;2024-01-07T09:27:29;2.40;99.90
25582;DHT22;13462;50.764;4.332;2024-01-07T09:29:55;2.40;99.90
25582;DHT22;13462;50.764;4.332;2024-01-07T09:32:21;2.30;99.90
25582;DHT22;13462;50.764;4.332;2024-01-07T09:34:47;2.40;99.90
25582;DHT22;13462;50.764;4.332;2024-01-07T09:37:13;2.40;99.90
25582;DHT22;13462;50.764;4.332;2024-01-07T09:46:24;2.30;99.90
25582;DHT22;13462;50.764;4.332;2024-01-07T09:48:50;2.30;99.90
25582;DHT22;13462;50.764;4.332;2024-01-07T09:51:20;2.40;99.90
25582;DHT22;13462;50.764;4.332;2024-01-07T09:53:48;2.40;99.90
25582;DHT22;13462;50.764;4.332;2024-01-07T09:56:26;2.40;99.90
25582;DHT22;13462;50.764;4.332;2024-01-07T09:58:57;2.40;99.90
25582;DHT22;13462;50.764;4.332;2024-01-07T10:01:33;2.40;99.90
25582;DHT22;13462;50.764;4.332;2024-01-07T10:04:01;2.50;99.90
25582;DHT22;13462;50.764;4.332;2024-01-07T10:06:27;2.50;99.90
25582;DHT22;13462;50.764;4.332;2024-01-07T10:08:52;2.40;99.90
25582;DHT22;13462;50.764;4.332;2024-01-07T10:11:18;2.40;99.90
25582;DHT22;13462;50.764;4.332;2024-01-07T10:13:47;2.30;99.90
25582;DHT22;13462;50.764;4.332;2024-01-07T10:16:13;2.40;99.90
25582;DHT22;13462;50.764;4.332;2024-01-07T10:18:39;2.40;99.90
25582;DHT22;13462;50.764;4.332;2024-01-07T10:21:06;2.40;99.90
25582;DHT22;13462;50.764;4.332;2024-01-07T10:23:32;2.40;99.90
25582;DHT22;13462;50.764;4.332;2024-01-07T10:25:58;2.40;99.90
25582;DHT22;13462;50.764;4.332;2024-01-07T10:28:24;2.40;99.90
25582;DHT22;13462;50.764;4.332;2024-01-07T10:30:50;2.40;99.90
25582;DHT22;13462;50.764;4.332;2024-01-07T10:33:19;2.40;99.90
25582;DHT22;13462;50.764;4.332;2024-01-07T10:35:52;2.40;99.90
25582;DHT22;13462;50.764;4.332;2024-01-07T10:38:19;2.30;99.90
25582;DHT22;13462;50.764;4.332;2024-01-07T10:40:47;2.30;99.90
25582;DHT22;13462;50.764;4.332;2024-01-07T10:43:15;2.20;99.90
25582;DHT22;13462;50.764;4.332;2024-01-07T10:45:43;2.30;99.90
25582;DHT22;13462;50.764;4.332;2024-01-07T10:48:10;2.30;99.90
25582;DHT22;13462;50.764;4.332;2024-01-07T10:50:38;2.20;99.90
25582;DHT22;13462;50.764;4.332;2024-01-07T10:53:27;2.30;99.90
25582;DHT22;13462;50.764;4.332;2024-01-07T10:56:00;2.30;99.90
25582;DHT22;13462;50.764;4.332;2024-01-07T10:58:33;2.40;99.90
25582;DHT22;13462;50.764;4.332;2024-01-07T11:01:02;2.50;99.90
25582;DHT22;13462;50.764;4.332;2024-01-07T11:04:08;2.30;99.90
25582;DHT22;13462;50.764;4.332;2024-01-07T11:06:49;2.10;99.90
25582;DHT22;13462;50.764;4.332;2024-01-07T11:11:45;2.10;99.90
25582;DHT22;13462;50.764;4.332;2024-01-07T11:14:42;2.20;99.90
25582;DHT22;13462;50.764;4.332;2024-01-07T11:17:11;2.20;99.90
25582;DHT22;13462;50.764;4.332;2024-01-07T11:19:49;2.30;99.90
25582;DHT22;13462;50.764;4.332;2024-01-07T11:22:26;2.20;99.90
25582;DHT22;13462;50.764;4.332;2024-01-07T11:25:29;2.30;99.90
25582;DHT22;13462;50.764;4.332;2024-01-07T11:28:00;2.30;99.90
25582;DHT22;13462;50.764;4.332;2024-01-07T11:30:26;2.30;99.90
25582;DHT22;13462;50.764;4.332;2024-01-07T11:33:02;2.30;99.90
25582;DHT22;13462;50.764;4.332;2024-01-07T11:35:59;2.30;99.90
25582;DHT22;13462;50.764;4.332;2024-01-07T11:38:26;2.20;99.90
25582;DHT22;13462;50.764;4.332;2024-01-07T11:40:53;2.20;99.90
25582;DHT22;13462;50.764;4.332;2024-01-07T11:43:20;2.20;99.90
25582;DHT22;13462;50.764;4.332;2024-01-07T11:45:51;2.20;99.90
25582;DHT22;13462;50.764;4.332;2024-01-07T11:48:18;2.10;99.90
25582;DHT22;13462;50.764;4.332;2024-01-07T11:50:44;2.10;99.90
25582;DHT22;13462;50.764;4.332;2024-01-07T11:53:12;2.20;99.90
25582;DHT22;13462;50.764;4.332;2024-01-07T11:55:38;2.20;99.90
25582;DHT22;13462;50.764;4.332;2024-01-07T11:58:04;2.10;99.90
25582;DHT22;13462;50.764;4.332;2024-01-07T12:00:33;2.10;99.90
25582;DHT22;13462;50.764;4.332;2024-01-07T12:03:02;2.00;99.90
25582;DHT22;13462;50.764;4.332;2024-01-07T12:05:29;2.00;99.90
25582;DHT22;13462;50.764;4.332;2024-01-07T12:07:55;1.90;99.90
25582;DHT22;13462;50.764;4.332;2024-01-07T12:10:21;2.00;99.90
25582;DHT22;13462;50.764;4.332;2024-01-07T12:12:47;2.00;99.90
25582;DHT22;13462;50.764;4.332;2024-01-07T12:15:13;2.00;99.90
25582;DHT22;13462;50.764;4.332;2024-01-07T12:17:39;2.00;99.90
25582;DHT22;13462;50.764;4.332;2024-01-07T12:20:05;2.00;99.90
25582;DHT22;13462;50.764;4.332;2024-01-07T12:22:32;2.00;99.90
25582;DHT22;13462;50.764;4.332;2024-01-07T12:25:07;2.10;99.90
25582;DHT22;13462;50.764;4.332;2024-01-07T12:27:34;2.00;99.90
25582;DHT22;13462;50.764;4.332;2024-01-07T12:30:01;2.00;99.90
25582;DHT22;13462;50.764;4.332;2024-01-07T12:32:28;2.10;99.90
25582;DHT22;13462;50.764;4.332;2024-01-07T12:34:53;2.10;99.90
25582;DHT22;13462;50.764;4.332;2024-01-07T12:37:22;2.20;99.90
25582;DHT22;13462;50.764;4.332;2024-01-07T12:39:47;2.20;99.90
25582;DHT22;13462;50.764;4.332;2024-01-07T12:42:13;2.20;99.90
25582;DHT22;13462;50.764;4.332;2024-01-07T12:44:39;2.30;99.90
25582;DHT22;13462;50.764;4.332;2024-01-07T12:47:05;2.30;99.90
25582;DHT22;13462;50.764;4.332;2024-01-07T12:49:31;2.20;99.90
25582;DHT22;13462;50.764;4.332;2024-01-07T12:51:56;2.10;99.90
25582;DHT22;13462;50.764;4.332;2024-01-07T12:54:22;2.10;99.90
25582;DHT22;13462;50.764;4.332;2024-01-07T12:56:50;2.20;99.90
25582;DHT22;13462;50.764;4.332;2024-01-07T12:59:15;2.10;99.90
25582;DHT22;13462;50.764;4.332;2024-01-07T13:01:41;2.10;99.90
25582;DHT22;13462;50.764;4.332;2024-01-07T13:04:07;2.10;99.90
25582;DHT22;13462;50.764;4.332;2024-01-07T13:06:34;2.10;99.90
25582;DHT22;13462;50.764;4.332;2024-01-07T13:09:00;2.10;99.90
25582;DHT22;13462;50.764;4.332;2024-01-07T13:11:29;2.10;99.90
25582;DHT22;13462;50.764;4.332;2024-01-07T13:13:55;2.00;99.90
25582;DHT22;13462;50.764;4.332;2024-01-07T13:16:25;2.00;99.90
25582;DHT22;13462;50.764;4.332;2024-01-07T13:18:51;2.00;99.90
25582;DHT22;13462;50.764;4.332;2024-01-07T13:21:17;2.10;99.90
25582;DHT22;13462;50.764;4.332;2024-01-07T13:23:43;2.00;99.90
25582;DHT22;13462;50.764;4.332;2024-01-07T13:26:10;2.00;99.90
25582;DHT22;13462;50.764;4.332;2024-01-07T13:28:35;2.10;99.90
25582;DHT22;13462;50.764;4.332;2024-01-07T13:31:01;2.10;99.90
25582;DHT22;13462;50.764;4.332;2024-01-07T13:33:29;2.00;99.90
25582;DHT22;13462;50.764;4.332;2024-01-07T13:35:55;1.90;99.90
25582;DHT22;13462;50.764;4.332;2024-01-07T13:38:20;1.90;99.90
25582;DHT22;13462;50.764;4.332;2024-01-07T13:40:47;1.90;99.90
25582;DHT22;13462;50.764;4.332;2024-01-07T13:43:12;2.00;99.90
25582;DHT22;13462;50.764;4.332;2024-01-07T13:45:38;2.00;99.90
25582;DHT22;13462;50.764;4.332;2024-01-07T13:48:04;2.00;99.90
25582;DHT22;13462;50.764;4.332;2024-01-07T13:50:29;1.90;99.90
25582;DHT22;13462;50.764;4.332;2024-01-07T13:52:55;1.90;99.90
25582;DHT22;13462;50.764;4.332;2024-01-07T13:55:21;1.90;99.90
25582;DHT22;13462;50.764;4.332;2024-01-07T13:57:46;1.80;99.90
25582;DHT22;13462;50.764;4.332;2024-01-07T14:00:12;1.90;99.90
25582;DHT22;13462;50.764;4.332;2024-01-07T14:02:43;1.90;99.90
25582;DHT22;13462;50.764;4.332;2024-01-07T14:05:11;1.80;99.90
25582;DHT22;13462;50.764;4.332;2024-01-07T14:07:37;1.80;99.90
25582;DHT22;13462;50.764;4.332;2024-01-07T14:10:04;1.60;99.90
25582;DHT22;13462;50.764;4.332;2024-01-07T14:12:31;1.60;99.90
25582;DHT22;13462;50.764;4.332;2024-01-07T14:14:57;1.60;99.90
25582;DHT22;13462;50.764;4.332;2024-01-07T14:17:22;1.70;99.90
25582;DHT22;13462;50.764;4.332;2024-01-07T14:19:48;1.70;99.90
25582;DHT22;13462;50.764;4.332;2024-01-07T14:22:14;1.70;99.90
25582;DHT22;13462;50.764;4.332;2024-01-07T14:24:40;1.70;99.90
25582;DHT22;13462;50.764;4.332;2024-01-07T14:27:05;1.70;99.90
25582;DHT22;13462;50.764;4.332;2024-01-07T14:29:31;1.70;99.90
25582;DHT22;13462;50.764;4.332;2024-01-07T14:31:57;1.70;99.90
25582;DHT22;13462;50.764;4.332;2024-01-07T14:34:22;1.80;99.90
25582;DHT22;13462;50.764;4.332;2024-01-07T14:36:48;1.70;99.90
25582;DHT22;13462;50.764;4.332;2024-01-07T14:39:14;1.70;99.90
25582;DHT22;13462;50.764;4.332;2024-01-07T14:41:40;1.70;99.90
25582;DHT22;13462;50.764;4.332;2024-01-07T14:44:05;1.70;99.90
25582;DHT22;13462;50.764;4.332;2024-01-07T14:46:31;1.70;99.90
25582;DHT22;13462;50.764;4.332;2024-01-07T14:48:57;1.70;99.90
25582;DHT22;13462;50.764;4.332;2024-01-07T14:51:22;1.70;99.90
25582;DHT22;13462;50.764;4.332;2024-01-07T14:53:48;1.80;99.90
25582;DHT22;13462;50.764;4.332;2024-01-07T14:56:13;1.70;99.90
25582;DHT22;13462;50.764;4.332;2024-01-07T14:58:39;1.70;99.90
25582;DHT22;13462;50.764;4.332;2024-01-07T15:01:06;1.80;99.90
25582;DHT22;13462;50.764;4.332;2024-01-07T15:03:32;1.80;99.90
25582;DHT22;13462;50.764;4.332;2024-01-07T15:05:58;1.80;99.90
25582;DHT22;13462;50.764;4.332;2024-01-07T15:08:23;1.80;99.90
25582;DHT22;13462;50.764;4.332;2024-01-07T15:10:49;1.50;99.90
25582;DHT22;13462;50.764;4.332;2024-01-07T15:13:14;1.60;99.90
25582;DHT22;13462;50.764;4.332;2024-01-07T15:15:40;1.70;99.90
25582;DHT22;13462;50.764;4.332;2024-01-07T15:18:07;1.70;99.90
25582;DHT22;13462;50.764;4.332;2024-01-07T15:20:32;1.70;99.90
25582;DHT22;13462;50.764;4.332;2024-01-07T15:22:58;1.70;99.90
25582;DHT22;13462;50.764;4.332;2024-01-07T15:25:24;1.60;99.90
25582;DHT22;13462;50.764;4.332;2024-01-07T15:27:49;1.60;99.90
25582;DHT22;13462;50.764;4.332;2024-01-07T15:30:15;1.70;99.90
25582;DHT22;13462;50.764;4.332;2024-01-07T15:32:41;1.80;99.90
25582;DHT22;13462;50.764;4.332;2024-01-07T15:35:06;1.80;99.90
25582;DHT22;13462;50.764;4.332;2024-01-07T15:37:34;1.80;99.90
25582;DHT22;13462;50.764;4.332;2024-01-07T15:40:00;1.80;99.90
25582;DHT22;13462;50.764;4.332;2024-01-07T15:42:26;1.80;99.90
25582;DHT22;13462;50.764;4.332;2024-01-07T15:44:52;1.70;99.90
25582;DHT22;13462;50.764;4.332;2024-01-07T15:47:18;1.70;99.90
25582;DHT22;13462;50.764;4.332;2024-01-07T15:49:44;1.70;99.90
25582;DHT22;13462;50.764;4.332;2024-01-07T15:52:09;1.70;99.90